Time;durP1;ratioP1;P1;durP2;ratioP2;P2;SDS_P1;SDS_P2;PMS_P1;PMS_P2;Temp;Humidity;BMP_temperature;BMP_pressure;BME280_temperature;BME280_humidity;BME280_pressure;Samples;Min_cycle;Max_cycle;Signal;HPM_P1;HPM_P2
2023/01/22 00:01:20;;;;;;;14.63;7.53;;;2.00;63.70;;;-3.36;98.21;96000.22;4971006;28;20152;-48
2023/01/22 00:03:49;;;;;;;17.45;8.75;;;2.00;63.70;;;-3.41;97.87;95994.72;4988221;28;20490;-48
2023/01/22 00:06:15;;;;;;;13.55;7.40;;;2.00;63.70;;;-3.43;98.23;96000.06;4978428;28;20033;-47
2023/01/22 00:08:41;;;;;;;15.50;8.52;;;1.90;63.60;;;-3.45;98.44;96002.03;4983627;28;20018;-48
2023/01/22 00:11:09;;;;;;;15.70;8.85;;;2.00;64.60;;;-3.46;98.62;95995.19;4971043;28;20032;-50
2023/01/22 00:13:35;;;;;;;15.75;8.10;;;1.90;63.70;;;-3.45;98.83;95994.19;4970739;28;20073;-47
2023/01/22 00:16:05;;;;;;;17.73;9.23;;;1.90;63.70;;;-3.47;98.97;95992.78;4969966;28;20036;-47
2023/01/22 00:18:41;;;;;;;13.35;8.10;;;1.90;63.80;;;-3.45;98.72;95990.78;4980251;28;20033;-47
2023/01/22 00:21:08;;;;;;;16.77;8.80;;;1.90;63.80;;;-3.42;98.77;95996.47;4983059;28;20057;-47
2023/01/22 00:23:34;;;;;;;15.02;8.07;;;1.90;63.80;;;-3.44;98.94;96003.66;4985174;28;20030;-47
2023/01/22 00:26:15;;;;;;;16.27;8.45;;;1.90;63.80;;;-3.43;99.00;96005.28;4990767;28;20032;-48
2023/01/22 00:28:44;;;;;;;15.43;8.45;;;1.90;63.80;;;-3.42;99.06;95996.47;4989867;28;20029;-47
2023/01/22 00:31:17;;;;;;;14.65;8.63;;;1.90;63.80;;;-3.46;98.99;95992.59;4963532;28;20550;-53
2023/01/22 00:33:46;;;;;;;15.70;8.27;;;1.90;63.80;;;-3.46;99.07;95991.78;4991361;28;20033;-49
2023/01/22 00:36:24;;;;;;;15.95;8.35;;;1.90;63.80;;;-3.43;99.19;95988.84;4975114;28;20030;-49
2023/01/22 00:38:50;;;;;;;15.18;8.30;;;1.90;63.80;;;-3.44;99.21;95992.44;4991036;28;20025;-47
2023/01/22 00:41:19;;;;;;;16.42;8.82;;;1.90;63.80;;;-3.45;99.20;95985.59;4971961;28;20041;-47
2023/01/22 00:43:48;;;;;;;15.00;8.20;;;1.90;63.80;;;-3.47;99.43;95988.38;4989759;28;20029;-48
2023/01/22 00:46:16;;;;;;;15.20;7.78;;;1.90;63.90;;;-3.49;99.68;95983.31;4992415;28;20054;-47
2023/01/22 00:48:48;;;;;;;15.25;9.13;;;1.90;63.80;;;-3.49;99.61;95983.31;4975006;28;20116;-48
2023/01/22 00:51:14;;;;;;;14.23;8.18;;;1.90;63.90;;;-3.44;99.79;95982.03;4969631;28;20065;-49
2023/01/22 00:53:50;;;;;;;15.75;8.68;;;1.90;63.90;;;-3.44;99.31;95982.03;4979747;28;20129;-47
2023/01/22 00:56:19;;;;;;;17.55;9.43;;;1.90;64.00;;;-3.46;99.57;95978.75;4991061;28;20026;-47
2023/01/22 00:58:48;;;;;;;17.42;8.88;;;1.90;64.00;;;-3.45;99.55;95975.16;4996132;28;20100;-47
2023/01/22 01:01:14;;;;;;;17.10;9.30;;;1.90;64.00;;;-3.45;99.72;95985.59;4989194;28;20025;-50
2023/01/22 01:03:41;;;;;;;19.48;9.20;;;1.90;64.00;;;-3.44;99.66;95984.63;4990757;28;20042;-51
2023/01/22 01:06:21;;;;;;;17.33;9.07;;;1.90;64.00;;;-3.46;100.00;95986.56;4978500;28;20113;-51
2023/01/22 01:08:49;;;;;;;17.30;9.38;;;1.90;64.10;;;-3.48;100.00;95984.13;4987180;28;20028;-48
2023/01/22 01:11:24;;;;;;;19.20;9.98;;;1.90;64.00;;;-3.44;100.00;95984.63;4974696;28;20026;-51
2023/01/22 01:13:52;;;;;;;17.35;9.88;;;1.90;64.10;;;-3.45;99.96;95982.97;4967943;28;20388;-50
2023/01/22 01:16:31;;;;;;;16.67;9.25;;;1.90;64.10;;;-3.46;100.00;95981.38;5006301;28;20013;-51
2023/01/22 01:19:08;;;;;;;18.48;9.43;;;1.90;64.20;;;-3.44;100.00;95982.03;4976954;28;20060;-47
2023/01/22 01:21:40;;;;;;;19.73;10.68;;;1.90;64.20;;;-3.47;100.00;95983.16;4992283;28;20056;-51
2023/01/22 01:24:08;;;;;;;11.30;6.90;;;1.90;64.30;;;-3.46;100.00;95974.34;4991864;28;20096;-47
2023/01/22 01:26:34;;;;;;;21.60;10.85;;;1.80;64.20;;;-3.42;100.00;95980.03;4956213;28;20814;-46
2023/01/22 01:29:08;;;;;;;17.85;10.20;;;1.90;64.30;;;-3.42;100.00;95980.84;4991655;28;20033;-49
2023/01/22 01:31:38;;;;;;;17.90;10.10;;;1.90;64.40;;;-3.40;100.00;95978.91;4989172;28;20026;-49
2023/01/22 01:34:13;;;;;;;18.80;9.77;;;1.90;64.30;;;-3.39;100.00;95977.09;4976781;28;20113;-46
2023/01/22 01:36:39;;;;;;;22.05;10.18;;;1.90;64.30;;;-3.37;100.00;95977.75;4991420;28;20045;-51
2023/01/22 01:39:10;;;;;;;17.52;9.15;;;1.90;64.40;;;-3.38;100.00;95983.97;4990867;28;20479;-48
2023/01/22 01:41:37;;;;;;;17.70;9.25;;;1.90;64.40;;;-3.38;100.00;95976.94;4978655;28;20397;-47
2023/01/22 01:44:20;;;;;;;15.75;9.57;;;1.90;64.30;;;-3.37;100.00;95978.56;4984112;28;20261;-49
2023/01/22 01:46:55;;;;;;;17.67;9.30;;;1.90;64.40;;;-3.34;99.95;95975.63;5002524;28;20029;-46
2023/01/22 01:49:33;;;;;;;20.05;10.35;;;1.90;64.40;;;-3.31;100.00;95972.69;4989131;28;20121;-48
2023/01/22 01:52:08;;;;;;;14.85;8.80;;;2.00;64.40;;;-3.29;99.76;95978.53;5001174;28;20029;-47
2023/01/22 01:54:35;;;;;;;18.35;9.98;;;2.00;64.50;;;-3.30;100.00;95974.28;4973908;28;20120;-48
2023/01/22 01:57:13;;;;;;;20.63;10.35;;;2.00;64.40;;;-3.29;99.64;95965.53;4988972;28;20025;-46
2023/01/22 01:59:44;;;;;;;18.80;9.65;;;2.00;64.40;;;-3.28;99.39;95971.53;4973920;28;20060;-47
2023/01/22 02:02:14;;;;;;;18.75;10.50;;;2.00;64.40;;;-3.28;99.74;95972.34;4989016;28;20021;-48
2023/01/22 02:04:40;;;;;;;19.63;10.60;;;2.10;64.40;;;-3.30;99.63;95966.47;5016009;23;20049;-48
2023/01/22 02:07:12;;;;;;;18.85;10.20;;;2.00;64.30;;;-3.29;99.94;95957.69;5010347;28;20400;-48
2023/01/22 02:09:46;;;;;;;19.87;9.87;;;2.10;64.40;;;-3.30;99.63;95963.88;5019814;28;20480;-48
2023/01/22 02:12:12;;;;;;;20.10;10.23;;;2.00;64.30;;;-3.29;99.78;95954.25;4994190;28;20311;-49
2023/01/22 02:14:44;;;;;;;19.40;10.77;;;2.00;64.30;;;-3.29;100.00;95962.91;5000538;28;20024;-47
2023/01/22 02:17:20;;;;;;;17.98;9.90;;;2.00;64.30;;;-3.30;99.82;95961.25;4992673;28;20446;-48
2023/01/22 02:19:49;;;;;;;19.67;10.30;;;2.00;64.40;;;-3.30;99.78;95956.06;4991720;28;20029;-50
2023/01/22 02:22:36;;;;;;;19.80;9.77;;;2.00;64.40;;;-3.30;99.99;95958.66;4992993;28;20033;-48
2023/01/22 02:25:08;;;;;;;20.13;10.45;;;2.00;64.40;;;-3.31;99.71;95958.84;4991999;28;20512;-49
2023/01/22 02:27:35;;;;;;;19.02;10.25;;;2.00;64.40;;;-3.30;100.00;95953.44;4992864;28;20025;-50
2023/01/22 02:30:07;;;;;;;20.27;9.95;;;2.00;64.40;;;-3.30;100.00;95950.03;4992182;28;20480;-49
2023/01/22 02:32:33;;;;;;;19.58;9.73;;;2.00;64.50;;;-3.31;100.00;95958.84;4992066;28;20475;-49
2023/01/22 02:34:59;;;;;;;18.15;9.35;;;2.00;64.50;;;-3.33;100.00;95947.78;4992753;28;20061;-50
2023/01/22 02:37:25;;;;;;;18.83;9.63;;;2.00;64.50;;;-3.33;100.00;95945.16;5009418;28;20025;-48
2023/01/22 02:39:51;;;;;;;19.48;11.05;;;2.00;64.50;;;-3.35;100.00;95947.16;4991612;28;20472;-48
2023/01/22 02:42:20;;;;;;;18.60;9.98;;;2.00;64.50;;;-3.32;100.00;95946.78;4992538;28;20098;-48
2023/01/22 02:44:52;;;;;;;21.13;10.00;;;2.00;64.50;;;-3.31;100.00;95935.41;4999692;28;20040;-48
2023/01/22 02:47:19;;;;;;;20.48;10.25;;;1.90;64.50;;;-3.32;100.00;95937.19;4998833;28;20476;-48
2023/01/22 02:49:52;;;;;;;19.00;9.98;;;2.00;64.60;;;-3.30;100.00;95929.19;5008252;28;20064;-48
2023/01/22 02:52:18;;;;;;;17.63;9.55;;;2.00;64.60;;;-3.29;99.95;95933.41;4992425;28;20025;-50
2023/01/22 02:54:44;;;;;;;18.33;9.55;;;2.00;64.60;;;-3.36;99.56;95935.09;4994055;28;20534;-48
2023/01/22 02:57:13;;;;;;;19.70;10.02;;;2.00;64.60;;;-3.35;100.00;95926.31;4990936;28;20053;-48
2023/01/22 02:59:39;;;;;;;20.85;9.98;;;2.00;65.40;;;-3.32;100.00;95924.16;4996350;28;20048;-49
2023/01/22 03:02:05;;;;;;;18.02;9.63;;;2.00;64.60;;;-3.30;99.91;95929.19;4999644;28;20065;-48
2023/01/22 03:04:31;;;;;;;20.70;9.93;;;2.00;64.60;;;-3.31;100.00;95924.97;5005729;28;20060;-51
2023/01/22 03:06:57;;;;;;;18.75;8.88;;;2.00;64.60;;;-3.34;99.81;95918.31;4972830;28;20477;-49
2023/01/22 03:09:28;;;;;;;18.27;9.32;;;2.00;65.40;;;-3.36;99.78;95935.88;4989111;28;20265;-48
2023/01/22 03:11:58;;;;;;;20.10;10.05;;;2.00;64.70;;;-3.38;100.00;95932.66;5009757;28;20379;-49
2023/01/22 03:22:49;;;;;;;19.35;9.50;;;2.00;64.80;;;-3.34;99.97;95918.31;4993390;28;20086;-48
2023/01/22 03:25:18;;;;;;;17.35;9.68;;;2.00;64.80;;;-3.32;99.96;95920.72;4982854;28;20029;-48
2023/01/22 03:30:31;;;;;;;17.13;9.55;;;2.00;64.80;;;-3.34;99.66;95920.91;4995964;28;20392;-48
2023/01/22 03:33:15;;;;;;;19.00;10.10;;;2.00;64.70;;;-3.32;99.82;95918.13;4987556;28;20057;-48
2023/01/22 03:35:48;;;;;;;18.13;9.75;;;2.00;64.80;;;-3.33;99.66;95919.91;5006329;28;20105;-48
2023/01/22 03:38:13;;;;;;;21.02;10.70;;;2.00;64.80;;;-3.30;99.87;95918.78;4985306;28;20136;-48
2023/01/22 03:40:42;;;;;;;18.45;9.63;;;2.00;64.80;;;-3.28;99.66;95919.44;4993882;28;20106;-48
2023/01/22 03:43:14;;;;;;;17.45;10.02;;;2.00;64.80;;;-3.28;99.39;95912.41;4999448;28;20395;-48
2023/01/22 03:45:46;;;;;;;16.23;8.48;;;2.00;64.90;;;-3.26;99.20;95915.69;4988179;28;20100;-50
2023/01/22 03:48:11;;;;;;;16.98;9.73;;;2.00;64.80;;;-3.24;99.31;95925.09;4989260;28;20041;-47
2023/01/22 03:50:40;;;;;;;18.25;9.02;;;2.00;64.80;;;-3.23;99.39;95921.50;4974994;28;20021;-48
2023/01/22 03:53:06;;;;;;;18.27;9.52;;;2.00;64.80;;;-3.21;98.95;95916.94;4984233;28;20014;-49
2023/01/22 03:55:32;;;;;;;16.33;8.90;;;2.00;64.80;;;-3.20;98.80;95928.97;4994502;28;20032;-48
2023/01/22 03:57:58;;;;;;;16.13;9.50;;;2.10;64.80;;;-3.18;98.63;95921.81;4999059;28;20076;-48
2023/01/22 04:00:24;;;;;;;16.90;9.23;;;2.10;64.80;;;-3.20;98.62;95921.97;4980050;28;20049;-48
2023/01/22 04:02:53;;;;;;;19.30;10.18;;;2.10;64.70;;;-3.19;98.73;95925.41;4984368;28;20487;-48
2023/01/22 04:05:19;;;;;;;18.58;8.32;;;2.10;64.70;;;-3.17;98.54;95929.44;4993259;28;20041;-49
2023/01/22 04:07:48;;;;;;;15.88;9.20;;;2.10;64.70;;;-3.18;98.32;95925.22;5009440;28;20030;-49
2023/01/22 04:10:17;;;;;;;16.90;9.90;;;2.20;64.70;;;-3.18;98.42;95929.63;5010013;28;20067;-49
2023/01/22 04:12:43;;;;;;;17.42;9.20;;;2.20;64.70;;;-3.24;98.02;95936.34;4994281;28;20108;-49
2023/01/22 04:15:15;;;;;;;18.05;9.45;;;2.20;64.70;;;-3.20;98.26;95936.81;5006234;28;20574;-48
2023/01/22 04:17:40;;;;;;;17.05;8.82;;;2.20;64.60;;;-3.22;98.16;95934.38;5004623;28;20407;-52
2023/01/22 04:20:12;;;;;;;14.73;8.73;;;2.10;64.50;;;-3.20;98.17;95948.03;5001809;28;20029;-48
2023/01/22 04:22:38;;;;;;;18.08;10.27;;;2.20;64.60;;;-3.23;98.23;95940.56;5004153;28;20021;-49
2023/01/22 04:25:05;;;;;;;20.15;9.70;;;2.10;64.50;;;-3.22;98.50;95947.41;5010496;28;20036;-49
2023/01/22 04:27:36;;;;;;;17.77;9.43;;;2.10;64.50;;;-3.20;98.13;95948.03;4991800;28;20025;-48
2023/01/22 04:30:04;;;;;;;18.15;9.45;;;2.10;64.50;;;-3.21;98.18;95948.22;5008898;28;20037;-48
2023/01/22 04:32:30;;;;;;;18.98;9.95;;;2.10;64.50;;;-3.22;98.71;95944.81;5004999;28;20025;-49
2023/01/22 04:35:02;;;;;;;16.98;9.52;;;2.10;64.50;;;-3.22;98.52;95947.41;4994000;28;20017;-50
2023/01/22 04:37:30;;;;;;;20.23;10.05;;;2.10;64.60;;;-3.23;98.75;95952.78;5010228;28;20119;-48
2023/01/22 04:39:56;;;;;;;17.30;9.40;;;2.10;64.60;;;-3.26;98.59;95957.38;4989181;28;20374;-48
2023/01/22 04:42:22;;;;;;;17.42;9.68;;;2.10;64.60;;;-3.22;98.56;95957.03;4975418;28;20100;-51
2023/01/22 04:44:48;;;;;;;19.65;10.18;;;2.10;64.60;;;-3.22;98.56;95950.03;5001796;28;20037;-52
2023/01/22 04:47:20;;;;;;;18.17;9.48;;;2.10;64.90;;;-3.22;98.61;95951.81;4993730;28;20036;-51
2023/01/22 04:49:51;;;;;;;18.50;10.52;;;2.10;64.70;;;-3.19;98.40;95951.47;4992771;28;20039;-52
2023/01/22 04:52:20;;;;;;;15.35;8.57;;;2.10;64.70;;;-3.25;98.27;95952.97;5009590;28;20198;-49
2023/01/22 04:54:50;;;;;;;16.88;9.20;;;2.10;64.70;;;-3.21;98.51;95962.06;4989783;28;20074;-49
2023/01/22 04:57:19;;;;;;;17.20;9.35;;;2.00;64.60;;;-3.21;98.48;95962.06;5007952;28;20017;-49
2023/01/22 04:59:45;;;;;;;15.90;9.52;;;2.10;64.70;;;-3.20;98.48;95955.84;4993080;28;20040;-51
2023/01/22 05:02:11;;;;;;;17.75;9.55;;;2.10;64.70;;;-3.19;98.24;95961.91;4998030;28;20034;-51
2023/01/22 05:04:37;;;;;;;17.33;10.05;;;2.10;64.70;;;-3.21;98.35;95962.06;4982225;28;20049;-51
2023/01/22 05:07:02;;;;;;;20.17;9.45;;;2.10;64.70;;;-3.17;97.91;95958.13;5001589;28;20070;-49
2023/01/22 05:09:34;;;;;;;17.52;9.45;;;2.10;64.70;;;-3.18;98.17;95966.94;4999749;28;20028;-50
2023/01/22 05:12:06;;;;;;;18.17;9.68;;;2.10;64.70;;;-3.13;98.23;95969.84;4991858;28;20029;-51
2023/01/22 05:14:32;;;;;;;17.75;9.27;;;2.20;64.70;;;-3.14;97.93;95965.59;5007026;28;20060;-52
2023/01/22 05:17:01;;;;;;;19.45;10.30;;;2.20;64.70;;;-3.10;97.79;95973.91;4992557;28;20506;-50
2023/01/22 05:19:27;;;;;;;13.93;8.35;;;2.20;64.70;;;-3.10;98.19;95972.13;4989123;28;20021;-52
2023/01/22 05:21:58;;;;;;;20.67;10.40;;;2.20;64.70;;;-3.14;97.87;95973.41;4991433;28;20397;-51
2023/01/22 05:24:24;;;;;;;18.83;9.48;;;2.20;64.70;;;-3.12;98.17;95968.06;4991115;28;20096;-49
2023/01/22 05:26:53;;;;;;;21.42;10.25;;;2.20;64.60;;;-3.10;98.13;95974.72;5008042;28;20029;-50
2023/01/22 05:29:24;;;;;;;17.60;10.27;;;2.20;64.60;;;-3.16;98.18;95978.00;5000923;28;20038;-51
2023/01/22 05:31:55;;;;;;;19.88;10.77;;;2.20;64.60;;;-3.16;98.46;95974.59;5008779;28;20017;-50
2023/01/22 05:34:21;;;;;;;19.45;10.98;;;2.20;65.40;;;-3.18;98.63;95976.53;5010109;28;20102;-52
2023/01/22 05:36:48;;;;;;;18.35;10.52;;;2.20;64.60;;;-3.16;98.66;95983.22;4986753;28;20036;-51
2023/01/22 05:39:16;;;;;;;18.98;10.25;;;2.20;64.70;;;-3.14;98.50;95986.44;4990598;28;20024;-52
2023/01/22 05:41:42;;;;;;;19.58;10.88;;;2.20;64.70;;;-3.15;98.69;95984.84;5009462;28;20484;-52
2023/01/22 05:44:13;;;;;;;16.63;9.88;;;2.20;64.70;;;-3.14;98.36;95994.25;4980813;28;20351;-50
2023/01/22 05:46:41;;;;;;;19.00;10.73;;;2.20;64.70;;;-3.13;98.75;95989.88;4977545;28;20338;-49
2023/01/22 05:49:07;;;;;;;22.58;11.80;;;2.20;64.70;;;-3.14;98.63;95991.66;4979847;28;20025;-51
2023/01/22 05:51:36;;;;;;;20.23;10.70;;;2.20;64.70;;;-3.16;98.91;95988.44;5003744;28;20364;-49
2023/01/22 05:54:02;;;;;;;19.88;10.73;;;2.20;64.70;;;-3.13;98.83;95990.69;4999584;28;20028;-49
2023/01/22 05:56:32;;;;;;;19.00;9.85;;;2.20;64.70;;;-3.13;98.89;95995.09;4989529;28;20036;-53
2023/01/22 05:58:59;;;;;;;21.42;10.77;;;2.20;64.70;;;-3.12;99.12;95997.53;4989647;28;20026;-50
2023/01/22 06:01:25;;;;;;;22.08;10.75;;;2.20;64.70;;;-3.12;98.98;95999.31;5004860;28;20020;-48
2023/01/22 06:03:54;;;;;;;20.48;11.05;;;2.20;64.70;;;-3.10;99.13;96000.78;4999661;28;20054;-50
2023/01/22 06:06:19;;;;;;;19.95;10.38;;;2.20;64.70;;;-3.13;99.28;95997.72;4972301;28;20469;-50
2023/01/22 06:08:50;;;;;;;20.25;10.63;;;2.20;64.80;;;-3.13;99.24;95998.53;4971783;28;20022;-52
2023/01/22 06:11:18;;;;;;;22.83;11.18;;;2.20;64.80;;;-3.10;99.62;95999.97;4990096;28;20523;-47
2023/01/22 06:13:46;;;;;;;17.23;10.05;;;2.20;64.80;;;-3.10;99.47;96005.19;4989994;28;20029;-50
2023/01/22 06:16:11;;;;;;;21.42;11.48;;;2.20;64.80;;;-3.09;99.27;96005.00;4940506;28;20373;-55
2023/01/22 06:18:40;;;;;;;21.10;12.07;;;2.20;64.80;;;-3.15;99.47;96010.91;4972359;28;20037;-46
2023/01/22 06:21:12;;;;;;;19.13;11.32;;;2.30;64.80;;;-3.19;99.63;96001.78;4989021;28;20046;-49
2023/01/22 06:23:41;;;;;;;21.80;10.98;;;2.20;64.80;;;-3.20;100.00;96007.16;4990222;28;20025;-51
2023/01/22 06:26:06;;;;;;;21.55;11.25;;;2.20;64.80;;;-3.17;100.00;96007.63;4971469;28;20033;-47
2023/01/22 06:28:40;;;;;;;19.55;10.85;;;2.20;64.80;;;-3.13;99.75;96005.53;4989599;28;20094;-51
2023/01/22 06:31:06;;;;;;;22.83;11.88;;;2.20;64.90;;;-3.09;99.66;96009.41;4971842;28;20111;-47
2023/01/22 06:33:37;;;;;;;22.77;11.73;;;2.20;64.90;;;-3.10;99.91;96006.00;4989871;28;20042;-49
2023/01/22 06:36:09;;;;;;;19.02;10.73;;;2.20;64.90;;;-3.09;99.66;96012.81;4990090;28;20505;-50
2023/01/22 06:38:39;;;;;;;23.70;11.75;;;2.20;64.90;;;-3.09;99.96;96014.63;4988622;28;20085;-51
2023/01/22 06:41:16;;;;;;;20.58;11.25;;;2.20;64.90;;;-3.09;99.76;96020.66;4982028;28;20026;-49
2023/01/22 06:43:42;;;;;;;21.08;11.43;;;2.20;64.90;;;-3.09;99.53;96020.66;4970972;28;20033;-50
2023/01/22 06:46:08;;;;;;;18.95;9.88;;;2.20;64.90;;;-3.06;99.73;96024.72;4985851;28;20071;-49
2023/01/22 06:48:34;;;;;;;19.83;10.48;;;2.20;64.90;;;-3.08;99.77;96030.09;4988313;28;20026;-51
2023/01/22 06:51:00;;;;;;;26.88;11.57;;;2.30;65.00;;;-3.08;100.00;96024.06;4988631;28;20497;-47
2023/01/22 06:53:27;;;;;;;21.05;11.52;;;2.30;65.00;;;-3.09;100.00;96025.84;4962362;28;20072;-51
2023/01/22 06:55:59;;;;;;;21.80;11.32;;;2.20;64.90;;;-3.10;100.00;96029.47;4962553;28;20026;-49
2023/01/22 06:58:25;;;;;;;25.50;13.27;;;2.30;65.00;;;-3.08;100.00;96026.66;4970405;28;20018;-47
2023/01/22 07:00:51;;;;;;;22.58;12.48;;;2.30;65.00;;;-3.10;100.00;96026.03;4980436;28;20451;-50
2023/01/22 07:03:19;;;;;;;21.63;11.65;;;2.20;64.90;;;-3.11;100.00;96025.19;4939947;28;22519;-52
2023/01/22 07:05:45;;;;;;;21.65;11.63;;;2.20;65.00;;;-3.08;100.00;96031.88;4988722;28;20472;-48
2023/01/22 07:08:14;;;;;;;30.70;12.25;;;2.30;65.10;;;-3.08;100.00;96035.28;4987784;28;20065;-48
2023/01/22 07:10:41;;;;;;;23.50;12.35;;;2.30;65.10;;;-3.04;100.00;96035.75;4970408;28;20026;-49
2023/01/22 07:13:09;;;;;;;22.20;11.52;;;2.30;65.10;;;-3.08;100.00;96035.28;4944048;28;20026;-47
2023/01/22 07:15:35;;;;;;;21.10;12.10;;;2.30;65.00;;;-3.04;100.00;96040.97;4988802;28;20025;-48
2023/01/22 07:18:01;;;;;;;21.83;12.65;;;2.30;65.00;;;-3.07;99.93;96041.31;4971036;28;20049;-52
2023/01/22 07:20:26;;;;;;;22.13;11.35;;;2.30;65.00;;;-3.12;99.90;96051.44;4988142;28;20017;-48
2023/01/22 07:22:56;;;;;;;21.45;11.27;;;2.30;64.90;;;-3.13;100.00;96039.41;4988679;28;20026;-50
2023/01/22 07:25:22;;;;;;;20.73;11.80;;;2.30;65.60;;;-3.17;100.00;96044.13;4971037;28;20090;-49
2023/01/22 07:27:48;;;;;;;23.27;12.38;;;2.30;64.80;;;-3.22;100.00;96049.03;4993327;28;20026;-48
2023/01/22 07:30:14;;;;;;;22.92;12.10;;;2.30;64.80;;;-3.27;100.00;96053.94;4972309;28;20022;-50
2023/01/22 07:32:40;;;;;;;23.02;11.55;;;2.20;64.80;;;-3.26;100.00;96052.94;4994284;28;20022;-52
2023/01/22 07:35:08;;;;;;;22.25;12.18;;;2.30;64.80;;;-3.28;100.00;96047.91;4946426;28;20052;-51
2023/01/22 07:37:36;;;;;;;23.90;12.07;;;2.20;64.80;;;-3.25;100.00;96049.38;4970596;28;20041;-52
2023/01/22 07:40:04;;;;;;;21.65;12.13;;;2.30;64.80;;;-3.21;100.00;96055.06;4994953;28;20033;-47
2023/01/22 07:42:36;;;;;;;23.15;12.57;;;2.30;64.90;;;-3.16;100.00;96050.16;4977736;28;20428;-52
2023/01/22 07:45:03;;;;;;;22.67;12.15;;;2.30;64.90;;;-3.16;100.00;96050.16;4968500;28;20065;-48
2023/01/22 07:47:29;;;;;;;22.15;11.60;;;2.30;64.80;;;-3.14;100.00;96048.19;4975311;28;20034;-50
2023/01/22 07:49:55;;;;;;;24.30;12.55;;;2.40;64.90;;;-3.07;100.00;96051.75;4984832;28;20616;-48
2023/01/22 07:55:08;;;;;;;25.38;12.95;;;2.50;64.70;;;-2.94;100.00;96049.44;4992922;28;20398;-48
2023/01/22 07:57:43;;;;;;;24.35;11.68;;;2.60;64.70;;;-2.90;99.65;96050.72;4994389;28;20486;-46
2023/01/22 08:00:17;;;;;;;22.60;10.88;;;2.70;64.70;;;-2.84;99.82;96047.44;4961161;28;20152;-47
2023/01/22 08:02:48;;;;;;;21.73;11.52;;;2.80;64.60;;;-2.73;99.27;96048.84;4993813;28;20691;-47
2023/01/22 08:05:14;;;;;;;22.02;11.60;;;2.90;64.50;;;-2.72;99.21;96050.47;5020202;23;20159;-46
2023/01/22 08:07:40;;;;;;;21.33;11.95;;;3.00;64.50;;;-2.64;98.92;96057.44;5011172;28;20025;-48
2023/01/22 08:10:13;;;;;;;24.95;11.90;;;3.10;64.30;;;-2.65;98.70;96058.44;4989684;28;20026;-50
2023/01/22 08:12:42;;;;;;;24.23;11.80;;;3.20;64.20;;;-2.54;98.34;96049.41;4980103;28;20032;-49
2023/01/22 08:15:11;;;;;;;21.30;11.23;;;3.30;64.00;;;-2.50;98.00;96050.72;4972983;28;20068;-45
2023/01/22 08:17:39;;;;;;;23.45;12.38;;;3.40;63.80;;;-2.43;97.93;96056.84;4942982;28;20022;-45
2023/01/22 08:20:12;;;;;;;21.23;12.13;;;3.50;63.60;;;-2.36;97.32;96050.75;4970084;28;20029;-47
2023/01/22 08:22:44;;;;;;;21.85;11.50;;;3.60;63.50;;;-2.24;97.15;96059.03;4965250;28;20472;-45
2023/01/22 08:25:10;;;;;;;20.30;11.30;;;3.80;63.30;;;-2.25;96.67;96054.00;4967759;28;20467;-50
2023/01/22 08:27:36;;;;;;;16.60;10.65;;;4.00;63.20;;;-2.26;96.46;96068.00;4942920;28;20430;-45
2023/01/22 08:30:04;;;;;;;21.45;11.68;;;4.10;62.80;;;-2.14;96.38;96061.41;4981323;28;20121;-46
2023/01/22 08:32:33;;;;;;;19.67;11.25;;;4.20;62.60;;;-2.02;95.71;96065.22;4986645;28;20444;-46
2023/01/22 08:35:02;;;;;;;19.42;10.82;;;4.30;62.40;;;-2.13;95.80;96065.63;4984468;28;20021;-46
2023/01/22 08:37:28;;;;;;;19.27;11.23;;;4.40;62.20;;;-2.07;95.47;96070.16;4991539;28;20033;-45
2023/01/22 08:39:54;;;;;;;19.67;11.55;;;4.40;62.00;;;-2.10;95.76;96070.50;4990271;28;20033;-47
2023/01/22 08:42:19;;;;;;;19.00;11.40;;;4.50;62.00;;;-1.93;95.78;96076.44;4987445;28;20539;-56
2023/01/22 08:44:45;;;;;;;25.02;13.25;;;4.50;61.90;;;-1.93;95.26;96066.81;4965534;28;20069;-46
2023/01/22 08:47:11;;;;;;;22.98;11.63;;;4.60;61.90;;;-1.84;95.35;96072.78;4987232;28;20469;-49
2023/01/22 08:49:37;;;;;;;19.75;10.98;;;4.70;61.80;;;-1.73;94.32;96072.34;4977119;28;20022;-45
2023/01/22 08:52:13;;;;;;;19.35;11.02;;;4.80;61.70;;;-1.55;93.95;96073.84;4987428;28;20469;-50
2023/01/22 08:54:39;;;;;;;17.17;10.55;;;5.00;61.40;;;-1.39;92.68;96073.69;4989940;28;20048;-48
2023/01/22 08:57:08;;;;;;;18.60;10.70;;;5.20;61.20;;;-1.23;91.67;96073.53;4987660;28;20056;-46
2023/01/22 08:59:34;;;;;;;18.05;9.98;;;5.50;60.90;;;-1.12;91.05;96077.53;4966047;28;20435;-51
2023/01/22 09:02:00;;;;;;;17.88;10.52;;;5.80;60.50;;;-1.08;90.71;96078.78;4979522;28;20092;-45
2023/01/22 09:04:40;;;;;;;17.00;9.93;;;6.10;60.00;;;-0.94;89.59;96077.16;4942420;28;20073;-45
2023/01/22 09:07:09;;;;;;;14.20;9.45;;;6.40;59.60;;;-0.97;89.58;96078.34;4979287;28;20558;-46
2023/01/22 09:09:37;;;;;;;16.17;10.30;;;6.60;59.40;;;-0.76;88.94;96080.22;4986470;28;20032;-49
2023/01/22 09:12:04;;;;;;;15.25;9.65;;;6.70;59.00;;;-0.81;87.78;96073.94;4971428;28;20044;-47
2023/01/22 09:14:30;;;;;;;17.02;10.05;;;6.70;58.80;;;-0.81;88.05;96079.16;4964659;28;20030;-49
2023/01/22 09:16:56;;;;;;;15.73;10.32;;;6.70;58.60;;;-0.94;87.85;96085.00;4959006;28;20025;-49
2023/01/22 09:19:22;;;;;;;15.48;9.63;;;6.60;58.50;;;-0.86;88.61;96089.34;4962049;28;20384;-46
2023/01/22 09:21:48;;;;;;;17.65;10.77;;;6.60;58.40;;;-0.83;87.99;96087.19;4988764;28;20048;-45
2023/01/22 09:24:14;;;;;;;18.33;10.82;;;6.50;58.50;;;-0.83;87.64;96079.34;4990923;28;20037;-49
2023/01/22 09:26:41;;;;;;;14.75;9.38;;;6.40;58.50;;;-0.73;88.20;96079.06;4986553;28;20034;-48
2023/01/22 09:29:07;;;;;;;17.40;10.60;;;6.30;58.60;;;-0.92;87.61;96080.41;4975613;28;20397;-48
2023/01/22 09:31:37;;;;;;;16.98;10.35;;;6.30;58.70;;;-0.96;87.97;96081.78;4967149;28;20075;-46
2023/01/22 09:34:03;;;;;;;15.38;10.38;;;6.20;58.60;;;-0.92;88.61;96080.41;4961344;28;20026;-47
2023/01/22 09:36:30;;;;;;;18.95;10.52;;;6.20;58.60;;;-0.89;88.64;96085.28;4986614;28;20021;-49
2023/01/22 09:38:56;;;;;;;16.23;10.40;;;6.20;58.50;;;-0.96;88.19;96084.38;4983299;28;20048;-46
2023/01/22 09:41:29;;;;;;;17.52;10.57;;;6.20;58.50;;;-1.07;88.30;96085.63;4969680;28;20029;-50
2023/01/22 09:44:27;;;;;;;15.98;9.93;;;6.20;58.40;;;-1.13;88.62;96088.97;4963623;28;20025;-47
2023/01/22 09:47:57;;;;;;;17.90;11.15;;;6.20;58.30;;;-1.27;89.56;96093.19;4977178;28;20103;-45
2023/01/22 09:50:31;;;;;;;18.48;10.80;;;6.10;58.20;;;-1.17;90.22;96091.13;4966281;28;20104;-45
2023/01/22 09:53:05;;;;;;;17.42;10.25;;;6.00;58.40;;;-1.06;89.68;96092.50;4965126;28;20030;-50
2023/01/22 09:55:46;;;;;;;16.38;10.32;;;6.10;58.40;;;-0.95;89.14;96091.22;4968899;28;20033;-53
2023/01/22 09:58:21;;;;;;;23.48;10.85;;;6.10;58.40;;;-1.06;88.82;96102.97;4962922;28;20045;-45
2023/01/22 10:01:04;;;;;;;17.30;10.30;;;6.20;58.40;;;-1.26;90.32;96099.22;4985586;28;20029;-46
2023/01/22 10:03:54;;;;;;;17.63;10.65;;;6.10;58.10;;;-1.16;89.82;96097.16;4984301;28;20075;-47
2023/01/22 10:06:22;;;;;;;16.73;9.30;;;6.10;58.20;;;-0.96;89.26;96106.13;4968976;28;20506;-54
2023/01/22 10:09:19;;;;;;;16.52;9.70;;;6.20;58.20;;;-0.71;88.22;96106.66;4970967;28;20691;-45
2023/01/22 10:11:53;;;;;;;17.88;10.15;;;6.40;58.10;;;-0.62;87.07;96102.16;4959739;28;20034;-49
2023/01/22 10:14:27;;;;;;;16.27;10.10;;;6.70;58.00;;;-0.80;86.91;96099.91;4968661;28;20483;-48
2023/01/22 10:16:58;;;;;;;15.18;9.95;;;6.90;57.60;;;-0.64;86.91;96095.47;4951992;28;20037;-48
2023/01/22 10:19:46;;;;;;;15.05;9.70;;;7.10;57.30;;;-0.62;86.06;96096.91;4970851;28;20499;-46
2023/01/22 10:22:24;;;;;;;17.90;11.02;;;7.30;56.90;;;-0.62;86.50;96099.53;4981853;28;20899;-47
2023/01/22 10:24:51;;;;;;;15.52;9.98;;;7.30;56.70;;;-0.69;86.05;96098.63;4965415;28;20029;-54
2023/01/22 10:27:38;;;;;;;15.45;9.65;;;7.30;56.60;;;-0.85;85.91;96099.63;4968849;28;20018;-51
2023/01/22 10:30:22;;;;;;;16.20;8.90;;;7.20;56.40;;;-0.91;87.00;96099.53;4986479;28;20088;-46
2023/01/22 10:33:04;;;;;;;16.35;10.25;;;7.00;56.40;;;-0.94;86.78;96101.53;4943491;28;20026;-49
2023/01/22 10:35:52;;;;;;;15.38;9.65;;;6.90;56.50;;;-1.03;87.68;96101.78;4976689;28;20387;-48
2023/01/22 10:38:31;;;;;;;15.70;10.20;;;6.90;56.60;;;-0.65;87.23;96109.56;4961944;28;20029;-45
2023/01/22 10:41:06;;;;;;;16.77;9.80;;;6.90;56.60;;;-0.31;85.05;96107.16;4961204;28;20036;-45